Time;durP1;ratioP1;P1;durP2;ratioP2;P2;SDS_P1;SDS_P2;PMS_P1;PMS_P2;Temp;Humidity;BMP_temperature;BMP_pressure;BME280_temperature;BME280_humidity;BME280_pressure;Samples;Min_cycle;Max_cycle;Signal;HPM_P1;HPM_P2
2023/10/17 00:01:00;;;;;;;16.73;15.43;;;7.20;99.90;;;;;;4869304;29;20473;-44
2023/10/17 00:03:26;;;;;;;16.10;14.80;;;7.10;99.90;;;;;;4879573;29;20431;-40
2023/10/17 00:05:54;;;;;;;16.40;15.07;;;7.10;99.90;;;;;;4874777;29;20483;-40
2023/10/17 00:08:21;;;;;;;16.10;14.50;;;7.10;99.90;;;;;;4878737;29;20527;-40
2023/10/17 00:10:46;;;;;;;17.00;15.53;;;7.10;99.90;;;;;;4875781;29;20458;-40
2023/10/17 00:15:53;;;;;;;16.40;15.20;;;7.00;99.90;;;;;;4862228;29;20199;-38
2023/10/17 00:18:20;;;;;;;16.20;15.00;;;7.00;99.90;;;;;;4875785;29;20475;-39
2023/10/17 00:20:50;;;;;;;16.20;15.00;;;6.90;99.90;;;;;;4875941;29;20222;-39
2023/10/17 00:23:20;;;;;;;16.43;15.23;;;6.90;99.90;;;;;;4876215;29;20438;-39
2023/10/17 00:25:46;;;;;;;16.40;15.10;;;6.80;99.90;;;;;;4876070;29;20796;-39
2023/10/17 00:28:20;;;;;;;16.30;15.00;;;6.80;99.90;;;;;;4876605;29;20198;-40
2023/10/17 00:30:48;;;;;;;16.07;14.90;;;6.70;99.90;;;;;;4875161;29;20448;-39
2023/10/17 00:33:20;;;;;;;17.00;15.43;;;6.70;99.90;;;;;;4884680;29;20446;-39
2023/10/17 00:35:47;;;;;;;17.00;15.60;;;6.60;99.90;;;;;;4875199;29;20462;-40
2023/10/17 00:38:15;;;;;;;16.02;14.73;;;6.50;99.90;;;;;;4875833;29;20432;-39
2023/10/17 00:40:49;;;;;;;15.68;14.48;;;6.50;99.90;;;;;;4873335;29;20265;-40
2023/10/17 00:43:15;;;;;;;17.10;15.60;;;6.50;99.90;;;;;;4884671;29;20197;-40
2023/10/17 00:45:45;;;;;;;16.30;15.07;;;6.40;99.90;;;;;;4875518;29;20765;-45
2023/10/17 00:48:19;;;;;;;15.77;14.57;;;6.50;99.90;;;;;;4873490;29;20279;-40
2023/10/17 00:50:50;;;;;;;16.20;14.97;;;6.40;99.90;;;;;;4872924;29;20443;-40
2023/10/17 00:53:16;;;;;;;17.07;15.67;;;6.40;99.90;;;;;;4872525;29;20496;-40
2023/10/17 00:55:51;;;;;;;16.00;14.80;;;6.30;99.90;;;;;;4872724;29;20451;-40
2023/10/17 00:58:21;;;;;;;16.23;15.03;;;6.30;99.90;;;;;;4880708;29;20434;-40
2023/10/17 01:01:09;;;;;;;15.43;14.23;;;6.40;99.90;;;;;;4874448;29;20464;-40
2023/10/17 01:03:45;;;;;;;15.93;14.50;;;6.30;99.90;;;;;;4882205;29;20187;-40
2023/10/17 01:06:54;;;;;;;16.23;15.03;;;6.30;99.90;;;;;;4873866;29;20467;-40
2023/10/17 01:09:18;;;;;;;16.33;15.10;;;6.20;99.90;;;;;;4867685;29;20437;-39
2023/10/17 01:11:45;;;;;;;15.30;14.20;;;6.20;99.90;;;;;;4869955;29;20194;-41
2023/10/17 01:14:20;;;;;;;15.63;14.47;;;6.20;99.90;;;;;;4874154;29;21063;-39
2023/10/17 01:16:46;;;;;;;15.37;14.27;;;6.10;99.90;;;;;;4872488;29;21031;-39
2023/10/17 01:19:15;;;;;;;15.70;14.50;;;6.10;99.90;;;;;;4878102;29;20528;-40
2023/10/17 01:21:41;;;;;;;14.90;13.80;;;6.10;99.90;;;;;;4869502;29;20468;-39
2023/10/17 01:24:08;;;;;;;15.65;14.32;;;6.10;99.90;;;;;;4873143;29;20898;-39
2023/10/17 01:26:37;;;;;;;15.20;14.02;;;6.10;99.90;;;;;;4870864;29;20198;-40
2023/10/17 01:29:04;;;;;;;15.52;14.32;;;6.10;99.90;;;;;;4877787;29;20192;-39
2023/10/17 01:31:37;;;;;;;16.35;14.95;;;6.10;99.90;;;;;;4874653;29;20263;-40
2023/10/17 01:34:06;;;;;;;15.93;14.73;;;6.10;99.90;;;;;;4875315;29;20699;-39
2023/10/17 01:36:31;;;;;;;15.82;14.52;;;6.10;99.90;;;;;;4872755;29;20448;-39
2023/10/17 01:38:57;;;;;;;15.70;14.50;;;6.10;99.90;;;;;;4874395;29;20209;-41
2023/10/17 01:41:22;;;;;;;14.80;13.80;;;6.10;99.90;;;;;;4874953;29;20229;-39
2023/10/17 01:43:50;;;;;;;15.23;14.10;;;6.10;99.90;;;;;;4876494;29;20648;-39
2023/10/17 01:46:21;;;;;;;14.40;13.40;;;6.10;99.90;;;;;;4873062;29;20547;-39
2023/10/17 01:48:53;;;;;;;15.10;13.97;;;6.10;99.90;;;;;;4864999;29;20195;-39
2023/10/17 01:51:19;;;;;;;15.10;13.85;;;6.10;99.90;;;;;;4874117;29;20455;-40
2023/10/17 01:53:50;;;;;;;14.85;13.85;;;6.00;99.90;;;;;;4876598;29;20218;-39
2023/10/17 01:56:29;;;;;;;15.32;14.30;;;6.00;99.90;;;;;;4875140;29;20737;-39
2023/10/17 01:58:55;;;;;;;14.65;13.60;;;6.00;99.90;;;;;;4874455;29;20195;-39
2023/10/17 02:01:26;;;;;;;14.43;13.52;;;6.00;99.90;;;;;;4869650;29;20249;-40
2023/10/17 02:04:05;;;;;;;15.40;14.05;;;5.90;99.90;;;;;;4874544;29;20200;-39
2023/10/17 02:06:33;;;;;;;14.90;13.70;;;5.90;99.90;;;;;;4872706;29;20194;-39
2023/10/17 02:08:59;;;;;;;15.70;14.45;;;5.90;99.90;;;;;;4873657;29;20195;-39
2023/10/17 02:11:43;;;;;;;15.93;14.63;;;5.80;99.90;;;;;;4875081;29;20278;-38
2023/10/17 02:14:09;;;;;;;14.55;13.48;;;5.90;99.90;;;;;;4874890;29;20195;-42
2023/10/17 02:16:35;;;;;;;14.20;13.13;;;5.80;99.90;;;;;;4873849;29;20195;-40
2023/10/17 02:19:07;;;;;;;14.27;13.27;;;5.80;99.90;;;;;;4873877;29;20202;-40
2023/10/17 02:21:33;;;;;;;15.40;14.05;;;5.80;99.90;;;;;;4877946;29;20219;-40
2023/10/17 02:24:01;;;;;;;14.40;13.20;;;5.80;99.90;;;;;;4878359;29;20266;-40
2023/10/17 02:26:29;;;;;;;15.35;14.15;;;5.80;99.90;;;;;;4877880;29;20792;-41
2023/10/17 02:29:05;;;;;;;15.48;14.18;;;5.80;99.90;;;;;;4876486;29;20656;-41
2023/10/17 02:31:32;;;;;;;14.38;13.27;;;5.70;99.90;;;;;;4877307;29;20797;-39
2023/10/17 02:33:58;;;;;;;14.63;13.52;;;5.70;99.90;;;;;;4877289;29;20195;-39
2023/10/17 02:36:25;;;;;;;15.38;14.07;;;5.70;99.90;;;;;;4877576;29;20213;-39
2023/10/17 02:38:50;;;;;;;14.50;13.30;;;5.60;99.90;;;;;;4869400;29;20194;-40
2023/10/17 02:41:19;;;;;;;14.77;13.57;;;5.60;99.90;;;;;;4875685;29;20639;-39
2023/10/17 02:43:46;;;;;;;14.80;13.55;;;5.60;99.90;;;;;;4870480;29;20218;-41
2023/10/17 02:46:15;;;;;;;14.85;13.75;;;5.60;99.90;;;;;;4876516;29;21042;-40
2023/10/17 02:48:42;;;;;;;14.60;13.57;;;5.50;99.90;;;;;;4869199;29;20185;-41
2023/10/17 02:53:55;;;;;;;13.95;12.95;;;5.50;99.90;;;;;;4872449;29;20529;-39
2023/10/17 02:56:22;;;;;;;14.40;13.20;;;5.50;99.90;;;;;;4891686;29;20299;-40
2023/10/17 02:59:06;;;;;;;14.48;13.38;;;5.50;99.90;;;;;;4863321;29;20202;-40
2023/10/17 03:01:36;;;;;;;13.85;12.75;;;5.50;99.90;;;;;;4880566;29;20242;-40
2023/10/17 03:04:09;;;;;;;14.15;12.95;;;5.50;99.90;;;;;;4876166;29;20931;-40
2023/10/17 03:06:37;;;;;;;13.90;12.85;;;5.50;99.90;;;;;;4877467;29;20519;-41
2023/10/17 03:09:15;;;;;;;14.30;13.20;;;5.50;99.90;;;;;;4866806;29;20593;-42
2023/10/17 03:12:06;;;;;;;13.70;12.70;;;5.50;99.90;;;;;;4876181;29;20202;-40
2023/10/17 03:15:18;;;;;;;13.95;12.95;;;5.50;99.90;;;;;;4874688;29;20621;-41
2023/10/17 03:17:27;;;;;;;14.23;13.13;;;5.50;99.90;;;;;;4875006;29;20548;-40
2023/10/17 03:19:53;;;;;;;14.25;13.23;;;5.50;99.90;;;;;;4873531;29;20198;-43
2023/10/17 03:22:24;;;;;;;14.37;13.27;;;5.50;99.90;;;;;;4873242;29;20219;-41
2023/10/17 03:24:51;;;;;;;14.63;13.52;;;5.50;99.90;;;;;;4877196;29;20190;-38
2023/10/17 03:27:55;;;;;;;14.82;13.50;;;5.50;99.90;;;;;;4875498;29;20188;-39
2023/10/17 03:30:14;;;;;;;13.25;12.35;;;5.50;99.90;;;;;;4877233;29;20709;-39
2023/10/17 03:35:25;;;;;;;15.07;13.90;;;5.50;99.90;;;;;;4875486;29;20824;-39
2023/10/17 03:37:54;;;;;;;13.68;12.75;;;5.50;99.90;;;;;;4876017;29;20225;-40
2023/10/17 03:40:40;;;;;;;13.85;12.75;;;5.50;99.90;;;;;;4872143;29;20271;-40
2023/10/17 03:43:11;;;;;;;14.40;13.38;;;5.50;99.90;;;;;;4876854;29;20565;-40
2023/10/17 03:45:51;;;;;;;13.00;12.15;;;5.50;99.90;;;;;;4863717;29;20205;-39
2023/10/17 03:48:20;;;;;;;13.80;12.80;;;5.50;99.90;;;;;;4876542;29;20193;-39
2023/10/17 03:53:29;;;;;;;13.40;12.40;;;5.60;99.90;;;;;;4881352;29;20194;-39
2023/10/17 03:56:00;;;;;;;14.20;13.00;;;5.60;99.90;;;;;;4885753;29;20185;-40
2023/10/17 04:01:10;;;;;;;14.23;13.02;;;5.60;99.90;;;;;;4874517;29;20227;-44
2023/10/17 04:03:36;;;;;;;14.32;12.82;;;5.60;99.90;;;;;;4872002;29;20297;-39
2023/10/17 04:08:48;;;;;;;14.20;13.10;;;5.70;99.90;;;;;;4875377;29;20748;-38
2023/10/17 04:11:25;;;;;;;13.60;12.50;;;5.70;99.90;;;;;;4882402;29;20188;-39
2023/10/17 04:13:52;;;;;;;13.55;12.45;;;5.80;99.90;;;;;;4863896;29;20202;-39
2023/10/17 04:16:26;;;;;;;13.90;12.70;;;5.80;99.90;;;;;;4867849;29;20202;-39
2023/10/17 04:18:57;;;;;;;13.30;12.18;;;5.80;99.90;;;;;;4866392;29;20192;-39
2023/10/17 04:21:36;;;;;;;14.30;13.10;;;5.80;99.90;;;;;;4866390;29;20309;-39
2023/10/17 04:24:05;;;;;;;12.52;11.60;;;5.80;99.90;;;;;;4867945;29;20181;-39
2023/10/17 04:26:43;;;;;;;13.93;12.77;;;5.80;99.90;;;;;;4863604;29;20224;-39
2023/10/17 04:29:13;;;;;;;14.15;12.95;;;5.80;99.90;;;;;;4866624;29;20206;-40
2023/10/17 04:31:39;;;;;;;14.75;13.45;;;5.80;99.90;;;;;;4866769;29;20194;-38
2023/10/17 04:34:14;;;;;;;13.90;12.93;;;5.80;99.90;;;;;;4867467;29;20574;-39
2023/10/17 04:36:41;;;;;;;13.93;12.82;;;5.90;99.90;;;;;;4881549;29;20191;-39
2023/10/17 04:44:36;;;;;;;15.15;13.85;;;6.00;99.90;;;;;;4867843;29;20172;-39
2023/10/17 04:49:30;;;;;;;13.95;12.85;;;6.00;99.90;;;;;;4867452;29;20187;-39
2023/10/17 04:52:08;;;;;;;15.55;14.20;;;6.00;99.90;;;;;;4867421;29;20989;-43
2023/10/17 04:57:02;;;;;;;15.57;14.30;;;6.10;99.90;;;;;;4866195;29;20226;-38
2023/10/17 04:59:41;;;;;;;15.30;14.00;;;6.00;99.90;;;;;;4866503;29;21341;-40
2023/10/17 06:19:20;;;;;;;14.10;12.90;;;6.50;99.90;;;;;;4870040;29;20764;-49
2023/10/17 06:34:47;;;;;;;14.70;13.40;;;6.80;99.90;;;;;;4868639;29;20187;-47
2023/10/17 06:37:19;;;;;;;15.23;13.83;;;6.90;99.90;;;;;;4866353;29;20495;-48
2023/10/17 06:39:49;;;;;;;16.53;14.90;;;6.90;99.90;;;;;;4867552;29;20239;-44
2023/10/17 06:42:16;;;;;;;15.33;14.03;;;7.00;99.90;;;;;;4868275;29;20472;-46
2023/10/17 06:44:54;;;;;;;16.67;15.10;;;7.00;99.90;;;;;;4868540;29;20435;-48
2023/10/17 06:47:31;;;;;;;16.77;15.27;;;7.10;99.90;;;;;;4868365;29;20484;-47
2023/10/17 06:55:38;;;;;;;16.20;14.80;;;7.20;99.90;;;;;;4869052;29;20476;-51
2023/10/17 06:58:10;;;;;;;16.70;15.40;;;7.40;99.90;;;;;;4866251;29;20440;-46
2023/10/17 07:00:49;;;;;;;16.87;15.33;;;7.40;99.90;;;;;;4868181;29;20935;-49
2023/10/17 07:03:16;;;;;;;16.07;14.57;;;7.50;99.90;;;;;;4867339;29;20463;-46
2023/10/17 07:05:49;;;;;;;17.17;15.67;;;7.60;99.90;;;;;;4866873;29;20512;-47
2023/10/17 07:08:21;;;;;;;17.50;15.90;;;7.60;99.90;;;;;;4866113;29;20416;-47
2023/10/17 07:11:09;;;;;;;18.30;16.60;;;7.70;99.90;;;;;;4866094;29;20570;-47
2023/10/17 07:16:41;;;;;;;17.10;15.70;;;7.80;99.90;;;;;;4867402;29;20420;-50
2023/10/17 07:19:46;;;;;;;18.63;16.90;;;7.90;99.90;;;;;;4867073;29;20424;-51
2023/10/17 07:24:33;;;;;;;16.93;15.53;;;8.10;99.90;;;;;;4868086;29;20429;-47
2023/10/17 07:27:03;;;;;;;17.57;16.00;;;8.20;99.90;;;;;;4867907;29;20420;-50
2023/10/17 07:29:36;;;;;;;18.37;16.67;;;8.30;99.90;;;;;;4869614;29;20817;-49
2023/10/17 07:32:09;;;;;;;19.03;17.40;;;8.50;99.90;;;;;;4867400;29;20440;-45
2023/10/17 07:34:36;;;;;;;18.47;16.90;;;8.60;99.90;;;;;;4865920;29;20434;-46
2023/10/17 07:38:04;;;;;;;18.30;16.80;;;8.70;99.90;;;;;;4867746;29;20444;-52
2023/10/17 07:42:40;;;;;;;17.00;15.50;;;9.00;53.80;;;;;;4868547;29;21069;-46
2023/10/17 07:45:15;;;;;;;16.93;15.53;;;9.10;41.90;;;;;;4866834;29;20519;-51
2023/10/17 07:47:51;;;;;;;17.50;15.90;;;9.20;16.30;;;;;;4867124;29;20526;-44
2023/10/17 07:50:17;;;;;;;16.30;15.00;;;9.20;6.00;;;;;;4867235;29;21407;-45
2023/10/17 07:52:59;;;;;;;15.63;14.47;;;9.30;6.40;;;;;;4866830;29;20500;-50
2023/10/17 07:55:37;;;;;;;14.70;13.60;;;9.40;9.00;;;;;;4866990;29;20924;-47
2023/10/17 07:58:17;;;;;;;14.83;13.70;;;9.40;1.00;;;;;;4867318;29;20432;-43
2023/10/17 08:00:43;;;;;;;15.53;14.33;;;9.30;1.00;;;;;;4865691;29;20448;-45
2023/10/17 08:03:17;;;;;;;16.17;15.07;;;9.30;1.00;;;;;;4866156;29;20428;-49
2023/10/17 08:08:44;;;;;;;14.67;13.70;;;9.50;1.00;;;;;;4861399;29;20429;-49
2023/10/17 08:11:31;;;;;;;15.73;14.40;;;9.50;1.00;;;;;;4866849;29;20560;-45
2023/10/17 08:14:06;;;;;;;15.60;14.60;;;9.50;1.00;;;;;;4865222;29;20440;-50
2023/10/17 08:16:32;;;;;;;15.90;14.60;;;9.60;1.00;;;;;;4867605;29;21266;-47
2023/10/17 08:18:58;;;;;;;15.97;14.97;;;9.60;1.00;;;;;;4867228;29;20424;-49
2023/10/17 08:23:57;;;;;;;14.97;13.87;;;9.80;1.00;;;;;;4867922;29;21047;-50
2023/10/17 08:26:31;;;;;;;15.83;14.70;;;10.00;1.00;;;;;;4867684;29;20428;-45
2023/10/17 08:28:57;;;;;;;17.87;16.17;;;9.90;1.00;;;;;;4867387;29;20171;-46
2023/10/17 08:31:23;;;;;;;15.83;14.80;;;9.90;1.00;;;;;;4868049;29;20423;-45
2023/10/17 08:34:09;;;;;;;14.63;13.73;;;10.00;1.00;;;;;;4867564;29;20215;-48
2023/10/17 08:39:26;;;;;;;15.83;14.83;;;10.50;1.00;;;;;;4866984;29;21014;-45
2023/10/17 08:41:57;;;;;;;14.90;13.90;;;10.70;1.00;;;;;;4867391;29;20507;-44
2023/10/17 08:44:28;;;;;;;14.50;13.60;;;10.80;1.00;;;;;;4867392;29;20424;-45
2023/10/17 08:46:55;;;;;;;14.83;13.83;;;11.10;1.00;;;;;;4867524;29;20432;-50
2023/10/17 08:49:21;;;;;;;15.40;14.30;;;11.40;1.00;;;;;;4867318;29;20440;-47
2023/10/17 08:51:50;;;;;;;14.77;13.83;;;11.70;1.00;;;;;;4867932;29;20576;-48
2023/10/17 08:54:19;;;;;;;14.97;13.90;;;12.00;99.90;;;;;;4867481;29;20429;-51
2023/10/17 08:56:47;;;;;;;15.70;14.50;;;11.90;99.90;;;;;;4867473;29;20516;-45
2023/10/17 08:59:15;;;;;;;15.50;14.40;;;12.00;1.00;;;;;;4867440;29;20483;-50
2023/10/17 09:02:14;;;;;;;14.20;13.30;;;12.00;99.90;;;;;;4866211;29;20472;-49
2023/10/17 09:04:42;;;;;;;15.93;14.73;;;12.00;1.00;;;;;;4867241;29;20420;-45
2023/10/17 09:07:09;;;;;;;14.73;13.70;;;12.40;82.20;;;;;;4865364;29;20433;-45
2023/10/17 09:09:35;;;;;;;15.70;14.57;;;12.70;1.00;;;;;;4867058;29;20420;-47
2023/10/17 09:12:01;;;;;;;14.67;13.67;;;13.00;1.00;;;;;;4867422;29;20435;-47
2023/10/17 09:14:35;;;;;;;14.20;13.30;;;13.40;1.00;;;;;;4865710;29;20467;-47
2023/10/17 09:17:10;;;;;;;15.00;14.00;;;13.80;1.00;;;;;;4867087;29;20507;-45
2023/10/17 09:19:46;;;;;;;14.70;13.80;;;14.20;1.00;;;;;;4867081;29;20407;-45
2023/10/17 09:22:16;;;;;;;14.47;13.67;;;14.50;99.90;;;;;;4866747;29;20506;-46
2023/10/17 09:24:49;;;;;;;13.60;12.80;;;14.70;1.00;;;;;;4866512;29;21474;-47
2023/10/17 09:27:16;;;;;;;15.13;13.80;;;14.90;99.90;;;;;;4865747;29;20856;-49
2023/10/17 09:29:58;;;;;;;14.83;13.80;;;15.20;99.90;;;;;;4867563;29;20415;-45
2023/10/17 09:32:38;;;;;;;13.30;12.37;;;15.20;1.00;;;;;;4870640;29;20983;-45
2023/10/17 09:35:15;;;;;;;14.93;13.93;;;15.80;1.00;;;;;;4870607;29;20431;-48
2023/10/17 09:37:52;;;;;;;14.20;13.30;;;16.30;1.00;;;;;;4871163;29;20419;-50
2023/10/17 09:40:29;;;;;;;14.60;13.60;;;16.50;1.00;;;;;;4870338;29;20478;-46
2023/10/17 09:42:56;;;;;;;15.43;14.53;;;16.50;1.00;;;;;;4870698;29;20467;-47
2023/10/17 09:45:22;;;;;;;14.70;13.70;;;16.60;1.00;;;;;;4870058;29;20428;-46
2023/10/17 09:47:53;;;;;;;15.07;14.17;;;16.60;1.00;;;;;;4869791;29;20433;-47
2023/10/17 09:50:21;;;;;;;14.33;13.33;;;16.30;1.00;;;;;;4869272;29;20476;-48
2023/10/17 09:52:50;;;;;;;13.57;12.47;;;15.90;1.00;;;;;;4869801;29;20456;-52
2023/10/17 09:55:18;;;;;;;14.37;13.47;;;16.00;1.00;;;;;;4869518;29;20943;-49
2023/10/17 09:57:50;;;;;;;13.33;12.53;;;16.00;1.00;;;;;;4870184;29;21569;-46
2023/10/17 10:00:34;;;;;;;13.23;12.43;;;15.80;1.00;;;;;;4869291;29;20492;-49
2023/10/17 10:03:01;;;;;;;14.00;13.20;;;16.00;1.00;;;;;;4870184;29;20471;-51
2023/10/17 10:05:30;;;;;;;14.33;13.53;;;16.00;1.00;;;;;;4869622;29;20897;-47
2023/10/17 10:08:02;;;;;;;12.67;11.97;;;15.80;1.00;;;;;;4869945;29;20507;-45
2023/10/17 10:10:46;;;;;;;13.27;12.57;;;15.90;1.00;;;;;;4869499;29;20507;-47
2023/10/17 10:13:14;;;;;;;13.33;12.43;;;16.00;1.00;;;;;;4869536;29;21048;-43
2023/10/17 10:16:01;;;;;;;13.73;12.93;;;16.10;1.00;;;;;;4868482;29;20471;-45
2023/10/17 10:18:35;;;;;;;13.30;12.60;;;16.60;1.00;;;;;;4869349;29;20436;-48
2023/10/17 10:21:05;;;;;;;13.87;12.97;;;17.10;99.90;;;;;;4868378;29;20454;-48
2023/10/17 10:23:41;;;;;;;13.37;12.20;;;18.30;99.90;;;;;;4869643;29;21088;-45
2023/10/17 10:26:10;;;;;;;12.53;11.93;;;19.50;99.90;;;;;;4869390;29;20419;-47
2023/10/17 10:28:52;;;;;;;11.27;10.67;;;19.40;99.90;;;;;;4867721;29;20896;-46
2023/10/17 10:31:21;;;;;;;11.10;10.40;;;20.00;99.90;;;;;;4869603;29;20432;-48
2023/10/17 10:33:49;;;;;;;11.77;11.17;;;20.20;99.90;;;;;;4869277;29;20909;-47
2023/10/17 10:36:24;;;;;;;12.30;11.60;;;21.00;99.90;;;;;;4869457;29;20475;-51
2023/10/17 10:38:51;;;;;;;12.77;11.83;;;21.50;99.90;;;;;;4869750;29;20530;-48
2023/10/17 10:41:18;;;;;;;12.53;11.73;;;22.20;99.90;;;;;;4868961;29;21032;-50
2023/10/17 10:43:44;;;;;;;12.33;11.73;;;22.70;99.90;;;;;;4869014;29;20843;-50
2023/10/17 10:46:11;;;;;;;12.80;12.20;;;22.70;99.90;;;;;;4868290;29;20452;-50
2023/10/17 10:48:45;;;;;;;12.10;11.50;;;23.10;99.90;;;;;;4869283;29;20420;-50
2023/10/17 10:51:15;;;;;;;12.60;11.90;;;23.50;99.90;;;;;;4869354;29;20459;-47
2023/10/17 10:53:41;;;;;;;11.53;10.73;;;23.30;99.90;;;;;;4869211;29;20432;-50
2023/10/17 10:56:11;;;;;;;12.10;11.50;;;23.40;99.90;;;;;;4869434;29;20444;-50
2023/10/17 10:58:56;;;;;;;13.30;12.50;;;23.60;99.90;;;;;;4869450;29;20873;-49
2023/10/17 11:01:25;;;;;;;13.20;12.50;;;24.00;99.90;;;;;;4868743;29;20477;-46
2023/10/17 11:03:52;;;;;;;12.33;11.63;;;23.60;99.90;;;;;;4868306;29;20860;-44
2023/10/17 11:06:27;;;;;;;12.60;11.90;;;22.90;99.90;;;;;;4868237;29;20441;-48
2023/10/17 11:08:54;;;;;;;12.70;11.90;;;22.90;99.90;;;;;;4867848;29;20443;-49
2023/10/17 11:11:19;;;;;;;12.10;11.50;;;23.30;99.90;;;;;;4867748;29;20444;-48
2023/10/17 11:13:52;;;;;;;11.63;10.93;;;23.50;99.90;;;;;;4868753;29;20788;-47
2023/10/17 11:16:21;;;;;;;12.87;12.17;;;24.00;99.90;;;;;;4868489;29;20192;-49
2023/10/17 11:18:47;;;;;;;11.43;10.90;;;24.20;99.90;;;;;;4868981;29;20476;-45
2023/10/17 11:21:16;;;;;;;13.20;12.50;;;23.70;99.90;;;;;;4868731;29;20476;-48
2023/10/17 11:23:46;;;;;;;12.60;11.90;;;23.10;99.90;;;;;;4868874;29;20432;-45
2023/10/17 11:26:14;;;;;;;11.33;10.80;;;22.80;99.90;;;;;;4868753;29;20779;-47
2023/10/17 11:28:46;;;;;;;11.50;10.90;;;22.70;99.90;;;;;;4866980;29;20440;-48
2023/10/17 11:31:13;;;;;;;12.60;11.90;;;23.20;99.90;;;;;;4869032;29;20439;-51
2023/10/17 11:33:45;;;;;;;12.30;11.60;;;23.60;99.90;;;;;;4868428;29;20487;-46
2023/10/17 11:36:19;;;;;;;11.13;10.63;;;23.10;99.90;;;;;;4868743;29;20428;-48
2023/10/17 11:38:53;;;;;;;11.57;10.87;;;22.30;99.90;;;;;;4867580;29;20446;-46
2023/10/17 11:41:19;;;;;;;11.63;11.03;;;21.00;99.90;;;;;;4868339;29;20552;-47
2023/10/17 11:43:51;;;;;;;13.27;12.57;;;20.30;99.90;;;;;;4868283;29;21022;-50
2023/10/17 11:46:29;;;;;;;12.73;12.03;;;19.70;99.90;;;;;;4868320;29;20472;-47
2023/10/17 11:49:34;;;;;;;12.97;12.27;;;19.30;99.90;;;;;;4868113;29;20420;-41
2023/10/17 11:52:10;;;;;;;12.70;12.10;;;18.30;99.90;;;;;;4867885;29;20419;-47
2023/10/17 11:54:55;;;;;;;12.13;11.53;;;17.50;99.90;;;;;;4867335;29;20448;-48
2023/10/17 11:57:25;;;;;;;13.20;12.50;;;17.20;99.90;;;;;;4868224;29;20471;-47
2023/10/17 12:00:06;;;;;;;11.63;11.03;;;17.20;99.90;;;;;;4868136;29;20417;-43
2023/10/17 12:02:32;;;;;;;13.20;12.50;;;16.50;99.90;;;;;;4868054;29;20478;-49
2023/10/17 12:05:03;;;;;;;12.83;12.13;;;16.30;99.90;;;;;;4868070;29;20473;-48
2023/10/17 12:07:29;;;;;;;13.30;12.50;;;16.10;99.90;;;;;;4868326;29;20872;-49
2023/10/17 12:10:02;;;;;;;10.87;10.27;;;15.90;99.90;;;;;;4867951;29;20431;-47
2023/10/17 12:12:30;;;;;;;10.67;10.17;;;15.50;99.90;;;;;;4866919;29;20288;-49
2023/10/17 12:14:57;;;;;;;12.10;11.40;;;15.30;99.90;;;;;;4867675;29;20470;-42
2023/10/17 12:17:23;;;;;;;11.33;10.70;;;15.20;99.90;;;;;;4866758;29;20421;-46
2023/10/17 12:19:51;;;;;;;11.97;11.40;;;15.40;99.90;;;;;;4866821;29;20455;-46
2023/10/17 12:22:16;;;;;;;11.83;11.03;;;15.50;99.90;;;;;;4866700;29;20555;-48
2023/10/17 12:24:42;;;;;;;11.30;10.70;;;15.50;99.90;;;;;;4866503;29;20453;-47
2023/10/17 12:27:12;;;;;;;13.27;12.47;;;15.40;99.90;;;;;;4867283;29;20191;-45
2023/10/17 12:29:41;;;;;;;12.33;11.73;;;15.30;99.90;;;;;;4867418;29;20483;-45
2023/10/17 12:32:10;;;;;;;12.73;12.03;;;15.40;99.90;;;;;;4867915;29;20432;-48
2023/10/17 12:34:42;;;;;;;12.37;11.70;;;15.40;99.90;;;;;;4867694;29;20443;-48
2023/10/17 12:37:11;;;;;;;13.43;12.50;;;15.40;99.90;;;;;;4867485;29;20466;-47
2023/10/17 12:39:40;;;;;;;12.23;11.60;;;15.30;99.90;;;;;;4867509;29;21031;-49
2023/10/17 12:42:05;;;;;;;11.77;11.17;;;15.40;99.90;;;;;;4867637;29;20499;-48
2023/10/17 12:44:31;;;;;;;12.00;11.30;;;15.30;99.90;;;;;;4867511;29;20495;-47
2023/10/17 12:46:57;;;;;;;12.07;11.47;;;15.30;99.90;;;;;;4866696;29;20202;-50
2023/10/17 12:49:23;;;;;;;12.50;11.90;;;15.20;99.90;;;;;;4866422;29;20191;-45
2023/10/17 12:51:48;;;;;;;11.23;10.73;;;15.20;99.90;;;;;;4865349;29;20456;-42
2023/10/17 12:54:14;;;;;;;11.43;10.93;;;15.20;99.90;;;;;;4867296;29;20215;-48
2023/10/17 12:56:40;;;;;;;11.53;10.90;;;15.30;99.90;;;;;;4866979;29;20204;-49
2023/10/17 12:59:12;;;;;;;11.80;11.20;;;15.30;99.90;;;;;;4867049;29;20770;-46
2023/10/17 13:01:39;;;;;;;12.00;11.40;;;15.30;99.90;;;;;;4866520;29;20468;-48
2023/10/17 13:04:05;;;;;;;12.20;11.20;;;15.30;99.90;;;;;;4867268;29;20424;-48
2023/10/17 13:06:30;;;;;;;11.83;11.30;;;15.30;99.90;;;;;;4866701;29;20487;-47
2023/10/17 13:08:56;;;;;;;11.60;11.00;;;15.30;99.90;;;;;;4867205;29;20222;-47
2023/10/17 13:11:26;;;;;;;10.47;9.97;;;15.20;99.90;;;;;;4867359;29;20195;-46
2023/10/17 13:13:53;;;;;;;11.30;10.50;;;15.20;99.90;;;;;;4867108;29;20471;-49
2023/10/17 13:16:26;;;;;;;11.90;11.20;;;15.10;99.90;;;;;;4865701;29;20991;-47
2023/10/17 13:19:05;;;;;;;10.63;10.03;;;15.10;99.90;;;;;;4866613;29;20535;-49
2023/10/17 13:21:34;;;;;;;11.53;10.93;;;15.10;99.90;;;;;;4867240;29;21489;-46
2023/10/17 13:24:00;;;;;;;11.60;11.03;;;15.10;99.90;;;;;;4866891;29;20436;-47
2023/10/17 13:26:26;;;;;;;12.37;11.77;;;15.10;99.90;;;;;;4866825;29;20786;-47
2023/10/17 13:28:54;;;;;;;12.60;11.90;;;15.10;99.90;;;;;;4866982;29;20191;-48
2023/10/17 13:31:20;;;;;;;12.00;11.40;;;15.00;99.90;;;;;;4867156;29;20453;-46
2023/10/17 13:33:46;;;;;;;11.60;11.00;;;14.90;99.90;;;;;;4881119;29;20440;-50
2023/10/17 13:36:11;;;;;;;12.90;12.30;;;14.90;99.90;;;;;;4867027;29;20443;-49
2023/10/17 13:38:40;;;;;;;11.73;11.13;;;14.80;99.90;;;;;;4866898;29;20327;-48
2023/10/17 13:41:10;;;;;;;12.43;11.53;;;14.80;99.90;;;;;;4866942;29;20904;-41
2023/10/17 13:43:38;;;;;;;12.17;11.47;;;14.60;99.90;;;;;;4866738;29;20455;-48
2023/10/17 13:46:08;;;;;;;12.60;11.90;;;14.60;99.90;;;;;;4866011;29;20533;-48
2023/10/17 13:48:34;;;;;;;12.50;11.90;;;14.60;99.90;;;;;;4864993;29;20445;-50
2023/10/17 13:51:04;;;;;;;12.20;11.53;;;14.60;99.90;;;;;;4864798;29;21732;-48
2023/10/17 13:53:29;;;;;;;13.00;12.30;;;14.50;99.90;;;;;;4866608;29;20428;-50
2023/10/17 13:55:55;;;;;;;12.47;11.77;;;14.50;99.90;;;;;;4866713;29;20912;-50
2023/10/17 13:58:20;;;;;;;11.63;11.10;;;14.30;99.90;;;;;;4866234;29;20671;-43
2023/10/17 14:00:51;;;;;;;12.70;12.00;;;14.30;99.90;;;;;;4866348;29;20184;-49
2023/10/17 14:03:17;;;;;;;12.90;12.20;;;14.20;99.90;;;;;;4864951;29;20207;-49
2023/10/17 14:05:49;;;;;;;13.50;12.80;;;14.30;99.90;;;;;;4864064;29;20440;-52
2023/10/17 14:08:16;;;;;;;12.47;11.77;;;14.10;99.90;;;;;;4864986;29;20444;-50
2023/10/17 14:10:43;;;;;;;11.43;10.87;;;14.10;99.90;;;;;;4865497;29;20448;-48
2023/10/17 14:13:12;;;;;;;12.23;11.50;;;14.10;99.90;;;;;;4863761;29;21381;-47
2023/10/17 14:15:38;;;;;;;12.43;11.77;;;14.00;99.90;;;;;;4856498;29;20847;-48
2023/10/17 14:18:13;;;;;;;12.03;11.43;;;14.00;99.90;;;;;;4868097;29;20576;-46
2023/10/17 14:20:40;;;;;;;11.13;10.63;;;14.00;99.90;;;;;;4866112;29;20450;-46
2023/10/17 14:23:12;;;;;;;11.73;11.13;;;14.00;99.90;;;;;;4864919;29;20468;-45
2023/10/17 14:28:23;;;;;;;11.93;11.10;;;14.00;99.90;;;;;;4868751;29;20435;-47
2023/10/17 14:30:49;;;;;;;11.80;11.20;;;14.00;99.90;;;;;;4866868;29;20436;-48
2023/10/17 14:33:15;;;;;;;11.60;10.90;;;13.90;99.90;;;;;;4869085;29;20279;-49
2023/10/17 14:35:43;;;;;;;11.10;10.60;;;13.90;99.90;;;;;;4866935;29;20534;-49
2023/10/17 14:38:10;;;;;;;11.13;10.53;;;13.90;99.90;;;;;;4869364;29;20431;-47
2023/10/17 14:40:35;;;;;;;11.40;10.83;;;13.90;99.90;;;;;;4868102;29;20864;-47
2023/10/17 14:43:02;;;;;;;11.87;10.97;;;13.90;99.90;;;;;;4867760;29;20478;-49
2023/10/17 14:45:30;;;;;;;12.27;11.57;;;14.10;99.90;;;;;;4868539;29;20849;-47
2023/10/17 14:47:56;;;;;;;11.20;10.60;;;14.10;99.90;;;;;;4868085;29;20436;-49
2023/10/17 14:50:22;;;;;;;12.10;11.50;;;14.00;99.90;;;;;;4867971;29;20433;-46
2023/10/17 14:52:48;;;;;;;11.67;11.07;;;14.00;99.90;;;;;;4869045;29;20468;-49
2023/10/17 14:55:23;;;;;;;11.93;11.33;;;14.10;99.90;;;;;;4867449;29;20188;-49
2023/10/17 14:57:49;;;;;;;12.10;11.40;;;14.20;99.90;;;;;;4868284;29;20436;-48
2023/10/17 15:00:15;;;;;;;11.70;11.10;;;14.30;99.90;;;;;;4867360;29;20463;-48
2023/10/17 15:02:44;;;;;;;12.90;12.20;;;14.30;99.90;;;;;;4868212;29;20211;-49
2023/10/17 15:05:13;;;;;;;12.63;11.93;;;14.30;99.90;;;;;;4868443;29;20511;-47
2023/10/17 15:07:40;;;;;;;11.57;10.97;;;14.30;99.90;;;;;;4866580;29;20440;-52
2023/10/17 15:10:13;;;;;;;11.93;11.30;;;14.30;99.90;;;;;;4867524;29;20887;-50
2023/10/17 15:12:43;;;;;;;12.40;11.70;;;14.20;99.90;;;;;;4868498;29;20420;-46